createdAt,value
2022-10-31T00:00:53.388Z,101225.31
2022-10-31T00:03:23.952Z,101225.27
2022-10-31T00:05:54.690Z,101225.06
2022-10-31T00:08:25.917Z,101228.83
2022-10-31T00:10:56.297Z,101231.80
2022-10-31T00:13:27.128Z,101234.02
2022-10-31T00:15:57.552Z,101234.91
2022-10-31T00:18:28.392Z,101232.80
2022-10-31T00:21:04.307Z,101233.52
2022-10-31T00:23:34.946Z,101236.23
2022-10-31T00:26:07.857Z,101233.92
2022-10-31T00:28:38.588Z,101235.52
2022-10-31T00:31:11.761Z,101233.36
2022-10-31T00:33:43.373Z,101239.27
2022-10-31T00:36:17.734Z,101240.39
2022-10-31T00:38:49.269Z,101241.33
2022-10-31T00:41:20.417Z,101246.56
2022-10-31T00:43:51.039Z,101245.38
2022-10-31T00:46:21.439Z,101247.66
2022-10-31T00:48:51.860Z,101251.80
2022-10-31T00:51:22.622Z,101252.27
2022-10-31T00:53:52.969Z,101256.23
2022-10-31T00:56:23.787Z,101257.74
2022-10-31T00:58:54.501Z,101257.98
2022-10-31T01:01:25.354Z,101260.58
2022-10-31T01:03:55.820Z,101268.59
2022-10-31T01:06:26.742Z,101273.36
2022-10-31T01:08:57.464Z,101276.27
2022-10-31T01:11:28.208Z,101275.92
2022-10-31T01:13:58.924Z,101277.56
2022-10-31T01:16:31.513Z,101284.42
2022-10-31T01:19:02.125Z,101286.27
2022-10-31T01:21:32.954Z,101289.81
2022-10-31T01:24:04.113Z,101290.10
2022-10-31T01:26:35.599Z,101292.09
2022-10-31T01:29:09.375Z,101293.44
2022-10-31T01:31:41.979Z,101291.36
2022-10-31T01:34:17.293Z,101293.55
2022-10-31T01:36:52.377Z,101294.94
2022-10-31T01:39:23.065Z,101297.14
2022-10-31T01:41:55.131Z,101301.48
2022-10-31T01:44:58.009Z,101304.79
2022-10-31T01:47:35.810Z,101301.57
2022-10-31T01:50:06.551Z,101301.23
2022-10-31T01:52:41.397Z,101305.02
2022-10-31T01:55:17.799Z,101307.81
2022-10-31T01:57:54.019Z,101308.32
2022-10-31T02:00:25.407Z,101306.96
2022-10-31T02:02:57.108Z,101307.98
2022-10-31T02:05:30.780Z,101305.06
2022-10-31T02:08:05.038Z,101308.14
2022-10-31T02:10:38.222Z,101316.42
2022-10-31T02:13:09.666Z,101320.13
2022-10-31T02:15:41.532Z,101318.70
2022-10-31T02:18:12.284Z,101316.53
2022-10-31T02:20:52.226Z,101330.30
2022-10-31T02:23:50.368Z,101333.71
2022-10-31T02:26:45.907Z,101338.55
2022-10-31T02:29:37.441Z,101339.16
2022-10-31T02:32:18.946Z,101337.98
2022-10-31T02:34:58.772Z,101338.96
2022-10-31T02:37:36.790Z,101334.42
2022-10-31T02:40:17.955Z,101337.67
2022-10-31T02:42:59.289Z,101338.55
2022-10-31T02:45:33.455Z,101341.16
2022-10-31T02:48:10.862Z,101345.48
2022-10-31T02:50:44.948Z,101345.04
2022-10-31T02:53:18.160Z,101343.19
2022-10-31T02:56:01.352Z,101342.56
2022-10-31T02:58:39.291Z,101345.39
2022-10-31T03:01:35.991Z,101351.90
2022-10-31T03:04:24.134Z,101351.29
2022-10-31T03:07:02.599Z,101348.27
2022-10-31T03:09:43.552Z,101353.19
2022-10-31T03:12:17.685Z,101350.90
2022-10-31T03:14:55.833Z,101354.42
2022-10-31T03:17:32.330Z,101359.80
2022-10-31T03:20:06.196Z,101361.31
2022-10-31T03:22:40.151Z,101358.44
2022-10-31T03:25:11.734Z,101360.75
2022-10-31T03:27:44.801Z,101362.20
2022-10-31T03:30:16.254Z,101360.41
2022-10-31T03:32:51.502Z,101360.33
2022-10-31T03:35:25.603Z,101360.54
2022-10-31T03:37:58.610Z,101362.98
2022-10-31T03:40:32.279Z,101363.14
2022-10-31T03:43:08.658Z,101363.42
2022-10-31T03:45:45.117Z,101366.13
2022-10-31T03:48:17.199Z,101367.25
2022-10-31T03:50:58.140Z,101367.76
2022-10-31T03:53:33.294Z,101372.22
2022-10-31T03:56:09.721Z,101375.55
2022-10-31T03:58:46.447Z,101375.63
2022-10-31T04:01:20.872Z,101376.27
2022-10-31T04:03:52.116Z,101376.59
2022-10-31T04:06:26.427Z,101378.45
2022-10-31T04:08:59.459Z,101378.95
2022-10-31T04:11:33.468Z,101385.64
2022-10-31T04:14:06.935Z,101383.52
2022-10-31T04:16:37.435Z,101385.29
2022-10-31T04:19:08.272Z,101388.31
2022-10-31T04:21:38.813Z,101386.16
2022-10-31T04:24:10.550Z,101388.14
2022-10-31T04:26:40.872Z,101387.13
2022-10-31T04:29:11.189Z,101390.38
2022-10-31T04:31:41.561Z,101388.34
2022-10-31T04:34:11.883Z,101387.15
2022-10-31T04:36:42.183Z,101391.30
2022-10-31T04:39:12.489Z,101393.73
2022-10-31T04:41:42.779Z,101394.36
2022-10-31T04:44:13.080Z,101400.51
2022-10-31T04:46:43.726Z,101405.27
2022-10-31T04:49:14.123Z,101407.91
2022-10-31T04:51:44.401Z,101413.52
2022-10-31T04:54:14.697Z,101412.84
2022-10-31T04:56:44.971Z,101409.95
2022-10-31T04:59:15.304Z,101413.88
2022-10-31T05:01:46.132Z,101411.07
2022-10-31T05:04:16.585Z,101413.63
2022-10-31T05:06:47.216Z,101413.19
2022-10-31T05:09:17.593Z,101413.21
2022-10-31T05:11:48.021Z,101410.23
2022-10-31T05:14:18.892Z,101410.86
2022-10-31T05:16:49.244Z,101412.74
2022-10-31T05:19:19.553Z,101404.44
2022-10-31T05:21:50.248Z,101398.79
2022-10-31T05:24:22.730Z,101397.38
2022-10-31T05:26:53.670Z,101395.74
2022-10-31T05:29:24.084Z,101400.15
2022-10-31T05:31:54.508Z,101402.05
2022-10-31T05:34:26.154Z,101401.58
2022-10-31T05:36:57.280Z,101399.59
2022-10-31T05:39:27.906Z,101402.27
2022-10-31T05:41:58.941Z,101398.89
2022-10-31T05:44:29.945Z,101396.44
2022-10-31T05:47:01.000Z,101395.67
2022-10-31T05:49:31.745Z,101398.59
2022-10-31T05:52:02.476Z,101399.13
2022-10-31T05:54:32.906Z,101398.39
2022-10-31T05:57:03.952Z,101398.65
2022-10-31T05:59:34.977Z,101402.43
2022-10-31T06:02:06.244Z,101402.66
2022-10-31T06:04:37.040Z,101401.86
2022-10-31T06:07:07.711Z,101408.84
2022-10-31T06:09:38.731Z,101410.88
2022-10-31T06:12:09.999Z,101413.59
2022-10-31T06:14:40.383Z,101416.92
2022-10-31T06:17:10.852Z,101420.46
2022-10-31T06:19:41.252Z,101421.09
2022-10-31T06:22:12.425Z,101416.77
2022-10-31T06:24:42.795Z,101416.41
2022-10-31T06:27:13.219Z,101417.73
2022-10-31T06:29:43.607Z,101423.96
2022-10-31T06:32:16.049Z,101428.84
2022-10-31T06:34:49.119Z,101428.23
2022-10-31T06:37:19.524Z,101438.64
2022-10-31T06:39:50.324Z,101443.39
2022-10-31T06:42:20.701Z,101442.59
2022-10-31T06:44:51.105Z,101448.35
2022-10-31T06:47:21.526Z,101451.98
2022-10-31T06:49:51.884Z,101452.77
2022-10-31T06:52:24.291Z,101452.69
2022-10-31T06:54:55.042Z,101457.27
2022-10-31T06:57:25.415Z,101456.86
2022-10-31T06:59:55.799Z,101457.55
2022-10-31T07:02:26.168Z,101456.78
2022-10-31T07:04:56.970Z,101454.20
2022-10-31T07:07:27.286Z,101452.21
2022-10-31T07:09:57.675Z,101451.59
2022-10-31T07:12:28.419Z,101451.84
2022-10-31T07:14:58.793Z,101446.51
2022-10-31T07:17:30.151Z,101445.96
2022-10-31T07:20:01.234Z,101444.91
2022-10-31T07:22:38.016Z,101450.89
2022-10-31T07:25:09.675Z,101450.82
2022-10-31T07:27:42.836Z,101450.59
2022-10-31T07:30:15.860Z,101453.00
2022-10-31T07:32:48.015Z,101454.88
2022-10-31T07:35:20.818Z,101454.86
2022-10-31T07:37:52.151Z,101456.13
2022-10-31T07:40:23.531Z,101458.16
2022-10-31T07:42:55.650Z,101463.80
2022-10-31T07:45:26.318Z,101473.70
2022-10-31T07:47:56.976Z,101476.79
2022-10-31T07:50:29.110Z,101475.85
2022-10-31T07:53:04.444Z,101471.30
2022-10-31T07:55:35.770Z,101471.60
2022-10-31T07:58:08.408Z,101474.39
2022-10-31T08:00:40.272Z,101473.23
2022-10-31T08:03:12.924Z,101469.84
2022-10-31T08:05:45.796Z,101466.71
2022-10-31T08:08:17.488Z,101465.55
2022-10-31T08:10:47.909Z,101464.45
2022-10-31T08:13:18.804Z,101462.27
2022-10-31T08:15:51.410Z,101467.20
2022-10-31T08:18:24.706Z,101476.60
2022-10-31T08:20:55.823Z,101475.48
2022-10-31T08:23:26.315Z,101481.98
2022-10-31T08:25:57.066Z,101482.73
2022-10-31T08:28:27.471Z,101483.08
2022-10-31T08:30:59.493Z,101482.89
2022-10-31T08:33:29.871Z,101483.27
2022-10-31T08:36:01.185Z,101484.66
2022-10-31T08:38:31.645Z,101484.05
2022-10-31T08:41:02.472Z,101475.66
2022-10-31T08:43:32.917Z,101472.35
2022-10-31T08:46:04.174Z,101471.61
2022-10-31T08:48:34.838Z,101473.14
2022-10-31T08:51:05.558Z,101470.54
2022-10-31T08:53:36.074Z,101462.98
2022-10-31T08:56:07.124Z,101463.27
2022-10-31T08:58:40.362Z,101466.05
2022-10-31T09:01:11.919Z,101467.11
2022-10-31T09:03:42.486Z,101468.80
2022-10-31T09:06:12.907Z,101463.85
2022-10-31T09:08:43.435Z,101457.83
2022-10-31T09:11:13.816Z,101457.40
2022-10-31T09:13:44.144Z,101464.30
2022-10-31T09:16:14.844Z,101465.83
2022-10-31T09:18:45.743Z,101465.15
2022-10-31T09:21:16.481Z,101462.13
2022-10-31T09:23:46.909Z,101460.04
2022-10-31T09:26:17.559Z,101459.05
2022-10-31T09:28:48.254Z,101453.92
2022-10-31T09:31:18.665Z,101449.13
2022-10-31T09:33:49.220Z,101451.31
2022-10-31T09:36:20.211Z,101449.81
2022-10-31T09:38:50.558Z,101455.36
2022-10-31T09:41:27.415Z,101450.73
2022-10-31T09:44:08.711Z,101451.77
2022-10-31T09:46:49.171Z,101452.80
2022-10-31T09:49:38.771Z,101445.46
2022-10-31T09:52:18.971Z,101443.81
2022-10-31T09:54:54.310Z,101438.61
2022-10-31T09:57:29.886Z,101438.67
2022-10-31T10:00:00.527Z,101440.12
2022-10-31T10:02:37.315Z,101440.28
2022-10-31T10:05:12.439Z,101442.55
2022-10-31T10:07:51.788Z,101440.87
2022-10-31T10:10:31.403Z,101442.07
2022-10-31T10:13:17.816Z,101444.14
2022-10-31T10:16:03.239Z,101444.01
2022-10-31T10:18:45.718Z,101442.90
2022-10-31T10:21:26.676Z,101441.38
2022-10-31T10:24:23.426Z,101438.57
2022-10-31T10:27:01.940Z,101436.95
2022-10-31T10:29:40.038Z,101434.52
2022-10-31T10:32:16.658Z,101434.59
2022-10-31T10:34:51.886Z,101426.61
2022-10-31T10:37:30.515Z,101424.08
2022-10-31T10:40:15.543Z,101416.52
2022-10-31T10:43:10.602Z,101419.10
2022-10-31T10:46:00.115Z,101412.59
2022-10-31T10:48:38.898Z,101407.80
2022-10-31T10:51:31.865Z,101402.39
2022-10-31T10:54:22.042Z,101400.58
2022-10-31T10:57:07.564Z,101402.39
2022-10-31T10:59:38.610Z,101403.09
2022-10-31T11:02:20.454Z,101402.92
2022-10-31T11:04:54.640Z,101400.45
2022-10-31T11:07:25.648Z,101397.05
2022-10-31T11:10:14.041Z,101393.23
2022-10-31T11:12:46.288Z,101388.88
2022-10-31T11:15:26.724Z,101386.12
2022-10-31T11:17:59.629Z,101382.63
2022-10-31T11:20:36.923Z,101382.70
2022-10-31T11:23:17.861Z,101380.58
2022-10-31T11:25:56.873Z,101376.50
2022-10-31T11:28:30.208Z,101376.45
2022-10-31T11:31:02.274Z,101371.91
2022-10-31T11:33:37.304Z,101370.40
2022-10-31T11:36:22.994Z,101370.20
2022-10-31T11:38:54.761Z,101366.59
2022-10-31T11:41:33.138Z,101360.25
2022-10-31T11:44:06.863Z,101357.73
2022-10-31T11:46:40.622Z,101351.98
2022-10-31T11:49:18.760Z,101352.80
2022-10-31T11:51:54.214Z,101350.98
2022-10-31T11:54:28.556Z,101347.83
2022-10-31T11:56:59.803Z,101345.48
2022-10-31T11:59:32.769Z,101346.77
2022-10-31T12:02:06.315Z,101342.37
2022-10-31T12:04:43.774Z,101339.20
2022-10-31T12:07:14.613Z,101340.52
2022-10-31T12:09:45.662Z,101339.52
2022-10-31T12:12:44.628Z,101339.36
2022-10-31T12:15:29.719Z,101333.95
2022-10-31T12:18:23.772Z,101335.87
2022-10-31T12:21:06.110Z,101334.08
2022-10-31T12:23:46.697Z,101331.81
2022-10-31T12:26:25.031Z,101330.71
2022-10-31T12:29:17.608Z,101326.16
2022-10-31T12:31:59.834Z,101324.03
2022-10-31T12:34:49.578Z,101318.17
2022-10-31T12:37:43.260Z,101316.38
2022-10-31T12:40:33.784Z,101313.22
2022-10-31T12:43:18.351Z,101308.31
2022-10-31T12:45:56.678Z,101309.10
2022-10-31T12:48:55.485Z,101302.10
2022-10-31T12:51:38.868Z,101298.85
2022-10-31T12:54:24.930Z,101294.27
2022-10-31T12:57:06.038Z,101289.20
2022-10-31T12:59:42.736Z,101286.17
2022-10-31T13:02:21.294Z,101279.35
2022-10-31T13:04:57.395Z,101277.83
2022-10-31T13:07:31.765Z,101276.75
2022-10-31T13:10:07.926Z,101277.98
2022-10-31T13:12:39.632Z,101276.10
2022-10-31T13:15:20.476Z,101273.15
2022-10-31T13:17:54.308Z,101271.32
2022-10-31T13:20:29.389Z,101268.88
2022-10-31T13:23:17.843Z,101265.61
2022-10-31T13:25:56.931Z,101255.25
2022-10-31T13:28:36.420Z,101255.31
2022-10-31T13:31:06.924Z,101249.88
2022-10-31T13:33:42.132Z,101240.92
2022-10-31T13:36:23.911Z,101238.70
2022-10-31T13:38:59.988Z,101233.04
2022-10-31T13:41:42.703Z,101232.92
2022-10-31T13:44:25.438Z,101232.57
2022-10-31T13:46:57.371Z,101228.84
2022-10-31T13:49:39.067Z,101224.99
2022-10-31T13:52:26.995Z,101224.05
2022-10-31T13:55:01.312Z,101218.44
2022-10-31T13:57:37.187Z,101217.10
2022-10-31T14:00:26.859Z,101215.98
2022-10-31T14:03:00.059Z,101211.76
2022-10-31T14:05:34.252Z,101209.05
2022-10-31T14:08:08.028Z,101212.30
2022-10-31T14:10:41.022Z,101209.17
2022-10-31T14:13:16.599Z,101206.14
2022-10-31T14:15:58.214Z,101203.06
2022-10-31T14:18:33.895Z,101200.28
2022-10-31T14:21:15.064Z,101199.29
2022-10-31T14:23:48.438Z,101194.77
2022-10-31T14:26:32.786Z,101194.42
2022-10-31T14:29:05.160Z,101191.95
2022-10-31T14:31:39.796Z,101191.04
2022-10-31T14:34:24.498Z,101188.52
2022-10-31T14:37:08.783Z,101186.79
2022-10-31T14:39:48.434Z,101181.71
2022-10-31T14:42:36.048Z,101189.33
2022-10-31T14:45:29.319Z,101180.66
2022-10-31T14:48:12.282Z,101181.80
2022-10-31T14:50:54.408Z,101177.38
2022-10-31T14:53:28.730Z,101178.19
2022-10-31T14:56:05.757Z,101177.86
2022-10-31T14:58:43.672Z,101179.60
2022-10-31T15:01:24.808Z,101173.59
2022-10-31T15:04:21.921Z,101170.35
2022-10-31T15:06:50.243Z,101168.39
2022-10-31T15:09:29.172Z,101168.94
2022-10-31T15:12:00.545Z,101169.45
2022-10-31T15:14:33.368Z,101165.29
2022-10-31T15:17:06.499Z,101161.11
2022-10-31T15:19:38.745Z,101160.33
2022-10-31T15:22:12.679Z,101157.69
2022-10-31T15:24:44.414Z,101158.17
2022-10-31T15:27:18.129Z,101152.98
2022-10-31T15:29:58.467Z,101152.59
2022-10-31T15:32:30.365Z,101152.77
2022-10-31T15:35:01.344Z,101153.38
2022-10-31T15:37:32.323Z,101147.30
2022-10-31T15:40:16.415Z,101139.14
2022-10-31T15:42:50.599Z,101135.64
2022-10-31T15:45:25.467Z,101132.81
2022-10-31T15:47:59.943Z,101128.17
2022-10-31T15:50:34.801Z,101125.65
2022-10-31T15:53:06.945Z,101118.51
2022-10-31T15:55:51.184Z,101110.33
2022-10-31T15:58:22.596Z,101104.01
2022-10-31T16:01:03.701Z,101098.77
2022-10-31T16:03:35.892Z,101100.08
2022-10-31T16:06:07.602Z,101102.27
2022-10-31T16:08:38.986Z,101106.52
2022-10-31T16:11:25.541Z,101110.30
2022-10-31T16:14:02.628Z,101112.13
2022-10-31T16:16:36.438Z,101111.51
2022-10-31T16:19:16.964Z,101109.61
2022-10-31T16:21:49.550Z,101106.32
2022-10-31T16:24:24.872Z,101109.45
2022-10-31T16:27:02.275Z,101106.62
2022-10-31T16:29:40.616Z,101104.96
2022-10-31T16:32:28.738Z,101096.53
2022-10-31T16:35:18.523Z,101092.21
2022-10-31T16:37:49.239Z,101094.21
2022-10-31T16:40:21.475Z,101089.35
2022-10-31T16:42:52.135Z,101087.41
2022-10-31T16:45:24.885Z,101087.62
2022-10-31T16:47:56.042Z,101091.94
2022-10-31T16:50:28.339Z,101091.77
2022-10-31T16:53:14.878Z,101087.64
2022-10-31T16:55:48.655Z,101084.67
2022-10-31T16:58:23.651Z,101084.41
2022-10-31T17:00:55.548Z,101080.82
2022-10-31T17:03:26.806Z,101079.90
2022-10-31T17:05:57.264Z,101076.44
2022-10-31T17:08:28.046Z,101073.98
2022-10-31T17:11:00.697Z,101074.71
2022-10-31T17:13:33.825Z,101069.39
2022-10-31T17:16:06.124Z,101068.52
2022-10-31T17:18:36.973Z,101068.04
2022-10-31T17:21:08.150Z,101068.69
2022-10-31T17:23:38.877Z,101062.77
2022-10-31T17:26:10.876Z,101059.66
2022-10-31T17:28:41.219Z,101063.52
2022-10-31T17:31:22.089Z,101065.46
2022-10-31T17:34:01.813Z,101066.44
2022-10-31T17:36:34.695Z,101063.48
2022-10-31T17:39:07.571Z,101063.15
2022-10-31T17:41:38.235Z,101056.06
2022-10-31T17:44:11.068Z,101053.23
2022-10-31T17:46:41.959Z,101052.73
2022-10-31T17:49:14.089Z,101047.25
2022-10-31T17:51:44.399Z,101052.17
2022-10-31T17:54:18.490Z,101055.23
2022-10-31T17:56:49.177Z,101054.55
2022-10-31T17:59:19.686Z,101053.04
2022-10-31T18:01:50.650Z,101051.14
2022-10-31T18:04:21.696Z,101043.18
2022-10-31T18:06:52.631Z,101038.20
2022-10-31T18:09:23.407Z,101034.84
2022-10-31T18:11:54.705Z,101029.66
2022-10-31T18:14:25.418Z,101029.55
2022-10-31T18:16:56.205Z,101030.52
2022-10-31T18:19:27.108Z,101023.64
2022-10-31T18:21:57.765Z,101020.52
2022-10-31T18:24:29.092Z,101017.41
2022-10-31T18:26:59.450Z,101014.33
2022-10-31T18:29:30.231Z,101008.05
2022-10-31T18:32:03.277Z,101000.98
2022-10-31T18:34:37.921Z,100992.23
2022-10-31T18:37:08.215Z,100994.81
2022-10-31T18:39:38.777Z,100991.54
2022-10-31T18:42:09.089Z,100990.29
2022-10-31T18:44:39.556Z,100991.94
2022-10-31T18:47:09.884Z,100987.64
2022-10-31T18:49:40.325Z,100989.64
2022-10-31T18:52:10.823Z,100989.39
2022-10-31T18:54:41.290Z,100988.15
2022-10-31T18:57:12.266Z,100991.88
2022-10-31T18:59:42.666Z,100988.88
2022-10-31T19:02:15.878Z,100987.69
2022-10-31T19:04:46.998Z,100985.41
2022-10-31T19:07:17.773Z,100984.92
2022-10-31T19:09:48.156Z,100976.80
2022-10-31T19:12:18.568Z,100974.90
2022-10-31T19:14:49.272Z,100969.89
2022-10-31T19:17:19.981Z,100968.80
2022-10-31T19:19:51.144Z,100964.27
2022-10-31T19:22:21.606Z,100961.79
2022-10-31T19:24:51.949Z,100964.86
2022-10-31T19:27:22.598Z,100959.64
2022-10-31T19:29:53.044Z,100954.70
2022-10-31T19:32:23.648Z,100954.67
2022-10-31T19:34:54.096Z,100948.48
2022-10-31T19:37:25.037Z,100945.17
2022-10-31T19:39:55.527Z,100943.20
2022-10-31T19:42:25.920Z,100947.23
2022-10-31T19:44:56.482Z,100949.19
2022-10-31T19:47:27.251Z,100956.13
2022-10-31T19:49:58.740Z,100952.58
2022-10-31T19:52:29.196Z,100950.94
2022-10-31T19:54:59.510Z,100948.16
2022-10-31T19:57:56.151Z,100948.37
2022-10-31T20:00:20.694Z,100943.31
2022-10-31T20:02:51.117Z,100943.25
2022-10-31T20:05:21.519Z,100941.55
2022-10-31T20:07:52.127Z,100935.65
2022-10-31T20:10:22.449Z,100923.28
2022-10-31T20:12:52.810Z,100921.02
2022-10-31T20:15:23.277Z,100919.19
2022-10-31T20:17:53.648Z,100919.67
2022-10-31T20:20:23.986Z,100911.75
2022-10-31T20:22:54.420Z,100906.32
2022-10-31T20:25:25.389Z,100899.23
2022-10-31T20:27:55.824Z,100890.77
2022-10-31T20:30:26.708Z,100893.29
2022-10-31T20:32:57.143Z,100894.88
2022-10-31T20:35:28.316Z,100892.34
2022-10-31T20:37:59.862Z,100885.81
2022-10-31T20:40:30.527Z,100878.37
2022-10-31T20:43:01.841Z,100878.28
2022-10-31T20:45:33.292Z,100876.93
2022-10-31T20:48:04.170Z,100872.38
2022-10-31T20:50:34.725Z,100865.45
2022-10-31T20:53:05.738Z,100858.05
2022-10-31T20:55:36.124Z,100851.63
2022-10-31T20:58:06.506Z,100844.15
2022-10-31T21:00:38.197Z,100840.77
2022-10-31T21:03:08.779Z,100834.73
2022-10-31T21:05:39.179Z,100832.12
2022-10-31T21:08:09.905Z,100832.89
2022-10-31T21:10:41.546Z,100828.17
2022-10-31T21:13:12.891Z,100823.73
2022-10-31T21:15:44.375Z,100819.05
2022-10-31T21:18:15.904Z,100814.73
2022-10-31T21:20:47.662Z,100816.73
2022-10-31T21:23:18.092Z,100818.40
2022-10-31T21:25:49.236Z,100819.26
2022-10-31T21:28:19.786Z,100829.08
2022-10-31T21:30:51.853Z,100831.99
2022-10-31T21:33:22.712Z,100831.06
2022-10-31T21:35:53.960Z,100833.57
2022-10-31T21:38:24.306Z,100830.34
2022-10-31T21:41:01.910Z,100823.27
2022-10-31T21:43:32.637Z,100817.77
2022-10-31T21:46:06.695Z,100814.45
2022-10-31T21:48:41.361Z,100808.41
2022-10-31T21:51:13.529Z,100809.92
2022-10-31T21:54:01.884Z,100804.27
2022-10-31T21:56:32.623Z,100804.27
2022-10-31T21:59:04.864Z,100800.38
2022-10-31T22:01:36.328Z,100791.75
2022-10-31T22:04:07.746Z,100789.94
2022-10-31T22:06:38.641Z,100786.17
2022-10-31T22:09:11.108Z,100780.52
2022-10-31T22:11:42.389Z,100776.98
2022-10-31T22:14:15.821Z,100776.08
2022-10-31T22:16:46.578Z,100775.43
2022-10-31T22:19:17.357Z,100777.61
2022-10-31T22:21:49.193Z,100785.70
2022-10-31T22:24:19.879Z,100787.75
2022-10-31T22:26:50.364Z,100783.51
2022-10-31T22:29:22.990Z,100781.66
2022-10-31T22:31:58.655Z,100771.80
2022-10-31T22:34:32.174Z,100766.77
2022-10-31T22:37:03.046Z,100765.42
2022-10-31T22:39:33.419Z,100765.21
2022-10-31T22:42:03.734Z,100757.29
2022-10-31T22:44:34.658Z,100752.88
2022-10-31T22:47:05.385Z,100750.07
2022-10-31T22:49:35.635Z,100749.87
2022-10-31T22:52:06.479Z,100747.73
2022-10-31T22:54:37.587Z,100747.31
2022-10-31T22:57:07.972Z,100741.83
2022-10-31T22:59:38.775Z,100731.01
2022-10-31T23:02:12.573Z,100725.26
2022-10-31T23:04:44.108Z,100724.77
2022-10-31T23:07:15.278Z,100720.96
2022-10-31T23:09:46.500Z,100719.32
2022-10-31T23:12:34.783Z,100719.66
2022-10-31T23:15:06.304Z,100717.91
2022-10-31T23:17:39.124Z,100711.73
2022-10-31T23:20:10.967Z,100716.00
2022-10-31T23:22:41.548Z,100715.42
2022-10-31T23:25:12.371Z,100714.31
2022-10-31T23:27:42.830Z,100708.52
2022-10-31T23:30:13.620Z,100713.09
2022-10-31T23:32:43.977Z,100718.77
2022-10-31T23:35:14.373Z,100718.40
2022-10-31T23:37:45.611Z,100720.98
2022-10-31T23:40:16.581Z,100726.27
2022-10-31T23:42:47.478Z,100722.45
2022-10-31T23:45:18.099Z,100727.40
2022-10-31T23:47:48.463Z,100725.55
2022-10-31T23:50:19.208Z,100726.61
2022-10-31T23:52:49.602Z,100733.27
2022-10-31T23:55:19.984Z,100738.80
2022-10-31T23:57:50.398Z,100734.48
